Time;durP1;ratioP1;P1;durP2;ratioP2;P2;SDS_P1;SDS_P2;PMS_P1;PMS_P2;Temp;Humidity;BMP_temperature;BMP_pressure;BME280_temperature;BME280_humidity;BME280_pressure;Samples;Min_cycle;Max_cycle;Signal;HPM_P1;HPM_P2
2021/10/31 00:00:04;;;;;;;19.02;9.05;;;;;;;6.51;100.00;97725.03;4964545;28;20050;-69
2021/10/31 00:02:31;;;;;;;19.88;9.43;;;;;;;6.55;100.00;97726.00;4964986;28;20046;-68
2021/10/31 00:04:58;;;;;;;20.02;8.50;;;;;;;6.62;100.00;97722.75;4964533;28;20061;-69
2021/10/31 00:07:24;;;;;;;17.70;9.00;;;;;;;6.62;100.00;97726.31;4963370;28;20063;-70
2021/10/31 00:09:51;;;;;;;21.20;9.55;;;;;;;6.57;100.00;97720.97;4964657;28;20062;-68
2021/10/31 00:12:18;;;;;;;16.55;8.20;;;;;;;6.47;100.00;97726.00;4965045;28;20131;-69
2021/10/31 00:14:45;;;;;;;18.35;8.23;;;;;;;6.53;100.00;97727.47;4964317;28;20098;-68
2021/10/31 00:17:12;;;;;;;18.17;8.73;;;;;;;6.36;100.00;97717.28;4964373;28;20066;-68
2021/10/31 00:19:38;;;;;;;17.20;7.43;;;;;;;6.40;100.00;97721.03;4964426;28;20064;-70
2021/10/31 00:22:05;;;;;;;17.95;8.75;;;;;;;6.38;100.00;97726.03;4966398;28;20066;-70
2021/10/31 00:24:32;;;;;;;19.02;9.40;;;;;;;6.44;100.00;97730.22;4968022;28;20394;-68
2021/10/31 00:26:58;;;;;;;22.92;9.70;;;;;;;6.35;100.00;97748.69;4968084;28;20058;-69
2021/10/31 00:29:25;;;;;;;21.85;10.20;;;;;;;6.38;99.96;97731.53;4968278;28;20066;-68
2021/10/31 00:31:52;;;;;;;21.85;9.18;;;;;;;5.33;99.56;97570.88;4968551;28;20257;-69
2021/10/31 00:34:19;;;;;;;17.25;8.57;;;;;;;6.21;99.52;97709.56;4967651;28;20055;-68
2021/10/31 00:36:46;;;;;;;20.25;8.55;;;;;;;6.19;100.00;97728.31;4967795;28;20065;-69
2021/10/31 00:39:12;;;;;;;19.73;9.70;;;;;;;6.09;100.00;97734.16;4967512;28;20063;-69
2021/10/31 00:41:39;;;;;;;15.35;8.73;;;;;;;5.87;100.00;97715.06;4968056;28;20055;-68
2021/10/31 00:44:06;;;;;;;20.02;8.18;;;;;;;5.99;99.92;97740.00;4967542;28;20070;-67
2021/10/31 00:46:33;;;;;;;15.18;7.60;;;;;;;5.97;100.00;97739.50;4967654;28;20055;-68
2021/10/31 00:49:00;;;;;;;19.90;8.30;;;;;;;5.93;100.00;97730.25;4966348;28;20438;-69
2021/10/31 00:51:28;;;;;;;17.02;7.90;;;;;;;5.87;100.00;97742.56;4966150;28;20066;-69
2021/10/31 00:53:57;;;;;;;19.70;8.20;;;;;;;5.84;100.00;97727.53;4967907;28;20133;-67
2021/10/31 00:56:24;;;;;;;18.52;7.95;;;;;;;5.81;100.00;97732.84;4967836;28;20058;-69
2021/10/31 00:58:52;;;;;;;16.45;8.25;;;;;;;5.33;100.00;97645.03;4967244;28;20046;-68
2021/10/31 01:01:20;;;;;;;16.60;7.40;;;;;;;5.90;100.00;97731.75;4967849;28;20063;-69
2021/10/31 01:03:47;;;;;;;14.20;7.28;;;;;;;5.83;100.00;97731.41;4967315;28;20445;-69
2021/10/31 01:06:32;;;;;;;14.63;7.22;;;;;;;5.84;100.00;97732.22;4967188;28;20129;-67
2021/10/31 01:09:23;;;;;;;17.17;7.68;;;;;;;5.82;100.00;97728.97;4965389;28;20057;-68
2021/10/31 01:12:27;;;;;;;30.58;12.90;;;;;;;5.66;100.00;97725.03;4965953;28;20061;-69
2021/10/31 01:15:24;;;;;;;22.75;10.23;;;;;;;5.75;100.00;97725.88;4965632;28;20051;-69
2021/10/31 01:18:28;;;;;;;17.13;8.52;;;;;;;5.79;100.00;97729.59;4967893;28;20051;-69
2021/10/31 01:21:03;;;;;;;15.82;7.22;;;;;;;5.81;100.00;97710.84;4967352;28;20059;-68
2021/10/31 01:23:42;;;;;;;13.32;7.72;;;;;;;5.76;100.00;97724.75;4967414;28;20058;-70
2021/10/31 01:26:46;;;;;;;17.77;8.02;;;;;;;5.69;100.00;97718.94;4965421;28;20062;-69
2021/10/31 01:29:13;;;;;;;17.55;8.63;;;;;;;5.74;100.00;97716.81;4966843;28;20581;-70
2021/10/31 01:32:06;;;;;;;18.92;8.90;;;;;;;5.76;100.00;97719.25;4965323;28;20050;-69
2021/10/31 01:35:01;;;;;;;17.17;7.68;;;;;;;5.63;100.00;97715.53;4966336;28;20055;-67
2021/10/31 01:37:46;;;;;;;14.98;7.70;;;;;;;5.65;100.00;97706.94;4966783;28;20062;-68
2021/10/31 01:40:34;;;;;;;16.90;7.82;;;;;;;5.38;100.00;97674.28;4966791;28;20067;-70
2021/10/31 01:43:12;;;;;;;18.98;8.20;;;;;;;5.59;100.00;97708.25;4967081;28;20130;-70
2021/10/31 01:46:07;;;;;;;16.30;7.28;;;;;;;5.50;100.00;97774.16;4966853;28;20419;-69
2021/10/31 01:49:02;;;;;;;12.18;7.03;;;;;;;5.45;100.00;97713.06;4966919;28;20505;-69
2021/10/31 01:51:53;;;;;;;17.67;7.07;;;;;;;5.46;100.00;97692.69;4966845;28;20073;-69
2021/10/31 01:54:26;;;;;;;16.80;7.20;;;;;;;5.38;100.00;97699.00;4966329;28;20059;-69
2021/10/31 01:56:57;;;;;;;15.07;7.18;;;;;;;5.41;100.00;97701.09;4966437;28;20070;-68
2021/10/31 01:59:28;;;;;;;16.73;7.70;;;;;;;5.42;100.00;97694.50;4966706;28;20070;-68
2021/10/31 02:01:57;;;;;;;14.07;7.18;;;;;;;5.53;100.00;97742.50;4966169;28;20519;-68
2021/10/31 02:04:26;;;;;;;16.92;7.90;;;;;;;5.54;100.00;97700.16;4965079;28;20516;-69
2021/10/31 02:06:55;;;;;;;16.50;8.13;;;;;;;5.52;100.00;97696.91;4965973;28;20053;-68
2021/10/31 02:09:23;;;;;;;17.50;7.68;;;;;;;4.97;100.00;97624.44;4966180;28;20182;-68
2021/10/31 02:11:53;;;;;;;16.98;8.50;;;;;;;5.43;100.00;97701.59;4966122;28;20058;-68
2021/10/31 02:14:20;;;;;;;15.18;7.50;;;;;;;5.26;100.00;97683.16;4966108;28;20090;-69
2021/10/31 02:16:47;;;;;;;15.95;7.97;;;;;;;5.01;100.00;97664.66;4965325;28;20062;-68
2021/10/31 02:19:24;;;;;;;16.48;7.30;;;;;;;5.36;100.00;97695.78;4966484;28;20109;-68
2021/10/31 02:21:58;;;;;;;16.27;7.68;;;;;;;5.26;100.00;97693.31;4965840;28;20474;-69
2021/10/31 02:24:25;;;;;;;13.57;7.30;;;;;;;5.07;100.00;97646.13;4964718;28;20055;-70
2021/10/31 02:26:51;;;;;;;14.35;7.18;;;;;;;5.32;100.00;97694.78;4965903;28;20055;-69
2021/10/31 02:29:19;;;;;;;14.85;7.57;;;;;;;5.44;100.00;97678.47;4964477;28;20498;-70
2021/10/31 02:31:45;;;;;;;15.68;6.93;;;;;;;4.88;100.00;97645.59;4964283;28;20058;-69
2021/10/31 02:34:13;;;;;;;12.95;6.53;;;;;;;5.05;100.00;97645.63;4965941;28;20497;-69
2021/10/31 02:36:40;;;;;;;15.02;7.50;;;;;;;5.47;100.00;97683.34;4965958;28;20063;-68
2021/10/31 02:39:08;;;;;;;13.27;7.07;;;;;;;5.52;100.00;97688.66;4965583;28;20082;-69
2021/10/31 02:41:35;;;;;;;16.27;7.18;;;;;;;5.30;100.00;97644.84;4965504;28;20079;-68
2021/10/31 02:44:03;;;;;;;15.85;7.65;;;;;;;5.40;100.00;97680.25;4965622;28;20423;-69
2021/10/31 02:46:36;;;;;;;15.00;6.95;;;;;;;5.44;100.00;97678.47;4965221;28;20536;-69
2021/10/31 02:49:07;;;;;;;16.73;7.97;;;;;;;5.39;100.00;97675.91;4964206;28;20477;-70
2021/10/31 02:51:54;;;;;;;21.58;10.52;;;;;;;5.23;100.00;97669.25;4965069;28;20055;-69
2021/10/31 02:54:43;;;;;;;20.98;9.93;;;;;;;5.44;100.00;97678.47;4965896;28;20433;-68
2021/10/31 02:57:17;;;;;;;17.60;8.80;;;;;;;5.49;100.00;97670.06;4964931;28;20062;-69
2021/10/31 02:59:52;;;;;;;18.67;8.15;;;;;;;5.54;100.00;97672.69;4965448;28;20051;-68
2021/10/31 03:02:20;;;;;;;19.60;9.13;;;;;;;5.09;100.00;97606.22;4965228;28;20522;-69
2021/10/31 03:04:48;;;;;;;17.17;7.65;;;;;;;5.64;100.00;97675.13;4965678;28;20050;-69
2021/10/31 03:07:15;;;;;;;23.58;10.02;;;;;;;5.70;100.00;97665.56;4964651;28;20506;-69
2021/10/31 03:09:46;;;;;;;22.42;10.10;;;;;;;5.88;100.00;97678.22;4965254;28;20063;-69
2021/10/31 03:12:13;;;;;;;14.45;7.70;;;;;;;5.39;100.00;97586.03;4965026;28;20047;-68
2021/10/31 03:14:40;;;;;;;15.20;8.40;;;;;;;5.90;100.00;97674.00;4963953;28;20153;-69
2021/10/31 03:17:07;;;;;;;21.25;8.85;;;;;;;5.89;99.72;97674.31;4963460;28;20062;-69
2021/10/31 03:19:38;;;;;;;18.05;8.10;;;;;;;5.86;99.78;97669.47;4963462;28;20185;-70
2021/10/31 03:22:06;;;;;;;15.13;7.78;;;;;;;5.71;100.00;97667.19;4963512;28;20054;-69
2021/10/31 03:24:34;;;;;;;16.85;7.93;;;;;;;5.58;100.00;97674.44;4965032;28;20055;-70
2021/10/31 03:27:02;;;;;;;15.98;8.38;;;;;;;4.77;100.00;97565.50;4964602;28;20058;-69
2021/10/31 03:29:29;;;;;;;18.98;7.38;;;;;;;5.53;100.00;97668.31;4965356;28;20058;-70
2021/10/31 03:31:55;;;;;;;15.75;7.97;;;;;;;5.57;100.00;97672.03;4963837;28;20051;-69
2021/10/31 03:34:22;;;;;;;13.07;7.57;;;;;;;5.57;100.00;97672.03;4965028;28;20066;-70
2021/10/31 03:36:49;;;;;;;13.93;7.20;;;;;;;5.62;100.00;97680.94;4964532;28;20460;-69
2021/10/31 03:39:17;;;;;;;15.30;7.53;;;;;;;5.72;99.74;97677.06;4964579;28;20054;-70
2021/10/31 03:41:45;;;;;;;19.10;7.38;;;;;;;5.18;98.94;97603.50;4964981;28;20050;-70
2021/10/31 03:44:17;;;;;;;15.63;7.85;;;;;;;5.68;99.96;97676.88;4964981;28;20051;-69
2021/10/31 03:46:44;;;;;;;17.75;7.90;;;;;;;5.55;100.00;97675.09;4963675;28;20300;-70
2021/10/31 03:49:15;;;;;;;15.30;8.30;;;;;;;5.62;100.00;97678.19;4965220;28;20057;-70
2021/10/31 03:51:43;;;;;;;18.30;8.10;;;;;;;5.41;100.00;97640.66;4964325;28;20061;-70
2021/10/31 03:54:10;;;;;;;16.42;7.75;;;;;;;5.20;100.00;97602.03;4963399;28;20074;-69
2021/10/31 03:56:37;;;;;;;15.48;8.50;;;;;;;5.47;100.00;97639.41;4965816;28;20062;-69
2021/10/31 03:59:04;;;;;;;18.58;10.30;;;;;;;5.74;99.11;97680.25;4968877;28;20089;-69
2021/10/31 04:01:32;;;;;;;31.67;12.43;;;;;;;5.71;99.12;97667.19;4968750;28;20098;-69
2021/10/31 04:04:00;;;;;;;22.02;10.07;;;;;;;5.70;98.70;97668.31;4968528;28;20074;-71
2021/10/31 04:06:27;;;;;;;18.42;9.82;;;;;;;5.75;98.79;97663.44;4968529;28;20138;-71
2021/10/31 04:08:54;;;;;;;23.60;10.90;;;;;;;5.70;98.32;97660.06;4967279;28;20047;-71
2021/10/31 04:11:21;;;;;;;24.05;11.70;;;;;;;5.61;98.54;97657.31;4968772;28;20051;-68
2021/10/31 04:13:48;;;;;;;30.25;13.73;;;;;;;5.51;99.56;97667.81;4966370;28;20050;-69
2021/10/31 04:16:15;;;;;;;34.00;15.68;;;;;;;4.86;99.91;97562.75;4968103;28;20051;-69
2021/10/31 04:18:42;;;;;;;40.58;16.40;;;;;;;5.49;100.00;97664.59;4968410;28;20062;-69
2021/10/31 04:21:09;;;;;;;47.17;18.65;;;;;;;5.28;100.00;97636.16;4968254;28;20054;-67
2021/10/31 04:23:36;;;;;;;55.30;23.10;;;;;;;5.54;99.81;97662.50;4968001;28;20059;-69
2021/10/31 04:26:02;;;;;;;46.83;21.33;;;;;;;5.51;99.56;97663.16;4968290;28;20514;-69
2021/10/31 04:28:29;;;;;;;43.70;19.67;;;;;;;5.46;99.04;97654.25;4968115;28;20460;-70
2021/10/31 04:30:56;;;;;;;35.97;16.58;;;;;;;5.37;100.00;97658.94;4968468;28;20493;-69
2021/10/31 04:33:23;;;;;;;22.85;11.18;;;;;;;4.51;100.00;97524.31;4966862;28;20051;-70
2021/10/31 04:35:50;;;;;;;22.83;10.27;;;;;;;5.34;100.00;97656.84;4968149;28;20600;-68
2021/10/31 04:38:20;;;;;;;25.80;12.15;;;;;;;5.32;100.00;97659.09;4967823;28;20494;-70
2021/10/31 04:40:46;;;;;;;20.70;10.98;;;;;;;5.26;100.00;97646.63;4966269;28;20046;-70
2021/10/31 04:43:14;;;;;;;23.80;10.90;;;;;;;5.22;100.00;97645.66;4967395;28;20505;-71
2021/10/31 04:45:43;;;;;;;19.02;9.98;;;;;;;5.10;100.00;97640.00;4967997;28;20054;-70
2021/10/31 04:48:11;;;;;;;18.23;9.80;;;;;;;5.24;100.00;97646.16;4967981;28;20054;-69
2021/10/31 04:50:38;;;;;;;20.10;10.88;;;;;;;4.94;100.00;97603.94;4966683;28;20051;-70
2021/10/31 04:53:07;;;;;;;21.55;9.50;;;;;;;5.19;100.00;97644.38;4967454;28;20510;-66
2021/10/31 04:55:38;;;;;;;26.30;11.48;;;;;;;5.36;100.00;97646.34;4967905;28;20058;-67
2021/10/31 04:58:05;;;;;;;25.50;12.00;;;;;;;5.11;100.00;97597.66;4966364;28;20415;-66
2021/10/31 05:00:32;;;;;;;27.40;11.20;;;;;;;5.53;100.00;97638.88;4966311;28;20069;-67
2021/10/31 05:03:00;;;;;;;25.13;10.27;;;;;;;5.68;100.00;97643.09;4967248;28;20125;-66
2021/10/31 05:05:26;;;;;;;21.65;10.57;;;;;;;5.72;100.00;97638.59;4967022;28;20051;-66
2021/10/31 05:07:55;;;;;;;23.52;10.50;;;;;;;5.76;100.00;97636.78;4967502;28;20047;-66
2021/10/31 05:10:24;;;;;;;20.40;9.73;;;;;;;5.62;100.00;97603.16;4967238;28;20057;-67
2021/10/31 05:12:51;;;;;;;26.27;12.55;;;;;;;5.84;100.00;97633.25;4965855;28;20046;-66
2021/10/31 05:15:18;;;;;;;20.38;10.73;;;;;;;5.60;100.00;97583.44;4965814;28;20050;-66
2021/10/31 05:17:46;;;;;;;23.98;11.43;;;;;;;6.11;100.00;97632.88;4966771;28;20063;-66
2021/10/31 05:20:13;;;;;;;22.95;11.43;;;;;;;6.21;100.00;97627.03;4967105;28;20058;-65
2021/10/31 05:22:40;;;;;;;23.65;11.15;;;;;;;6.18;100.00;97611.16;4967409;28;20065;-66
2021/10/31 05:25:08;;;;;;;21.08;10.93;;;;;;;6.12;100.00;97590.47;4967026;28;20054;-66
2021/10/31 05:27:36;;;;;;;31.15;12.82;;;;;;;6.54;100.00;97630.00;4965745;28;20086;-66
2021/10/31 05:30:05;;;;;;;26.13;11.82;;;;;;;6.13;99.72;97567.38;4965695;28;20070;-66
2021/10/31 05:32:34;;;;;;;23.52;11.25;;;;;;;6.67;99.61;97640.78;4967125;28;20063;-66
2021/10/31 05:35:01;;;;;;;21.92;10.38;;;;;;;6.36;99.42;97607.25;4964866;28;20055;-65
2021/10/31 05:37:35;;;;;;;21.40;10.48;;;;;;;6.66;98.83;97650.19;4966653;28;20069;-64
2021/10/31 05:40:04;;;;;;;24.48;12.35;;;;;;;6.71;98.24;97636.25;4966312;28;20050;-64
2021/10/31 05:42:30;;;;;;;24.20;13.32;;;;;;;6.72;98.96;97626.03;4966472;28;20051;-65
2021/10/31 05:44:57;;;;;;;25.85;13.57;;;;;;;6.64;97.42;97596.63;4964973;28;20051;-65
2021/10/31 05:47:24;;;;;;;25.25;12.57;;;;;;;7.05;95.83;97641.56;4967120;28;20498;-67
2021/10/31 05:49:52;;;;;;;25.33;11.80;;;;;;;6.96;96.41;97649.06;4967150;28;20447;-66
2021/10/31 05:52:19;;;;;;;23.73;9.82;;;;;;;6.38;94.66;97599.47;4966924;28;20050;-64
2021/10/31 05:54:46;;;;;;;16.23;8.65;;;;;;;6.78;95.71;97636.50;4966385;28;20055;-65
2021/10/31 05:57:13;;;;;;;17.45;9.20;;;;;;;6.88;93.26;97640.84;4966226;28;20510;-66
2021/10/31 05:59:39;;;;;;;18.92;9.60;;;;;;;6.92;94.62;97642.63;4966390;28;20520;-65
2021/10/31 06:02:09;;;;;;;19.02;9.73;;;;;;;7.07;94.25;97646.72;4966584;28;20062;-66
2021/10/31 06:04:39;;;;;;;18.23;10.20;;;;;;;6.92;93.06;97597.75;4966387;28;20061;-65
2021/10/31 06:07:06;;;;;;;28.65;12.40;;;;;;;7.35;93.16;97645.91;4966117;28;20497;-66
2021/10/31 06:09:34;;;;;;;39.67;17.90;;;;;;;7.45;94.46;97645.53;4966170;28;20502;-66
2021/10/31 06:12:04;;;;;;;34.00;17.88;;;;;;;7.50;95.56;97648.06;4965997;28;20050;-66
2021/10/31 06:14:40;;;;;;;51.15;20.85;;;;;;;7.56;94.32;97646.72;4964869;28;20456;-66
2021/10/31 06:17:07;;;;;;;36.50;17.38;;;;;;;7.53;94.77;97647.41;4966107;28;20047;-66
2021/10/31 06:19:35;;;;;;;33.00;17.65;;;;;;;7.73;94.29;97654.84;4965450;28;20660;-66
2021/10/31 06:22:04;;;;;;;37.65;19.63;;;;;;;7.77;95.48;97645.91;4966004;28;20047;-65
2021/10/31 06:24:31;;;;;;;37.20;19.83;;;;;;;7.16;95.03;97527.09;4963980;28;20506;-64
2021/10/31 06:26:58;;;;;;;63.60;25.48;;;;;;;7.83;93.65;97628.00;4966303;28;20081;-64
2021/10/31 06:29:26;;;;;;;60.38;26.80;;;;;;;7.87;94.06;97651.84;4966600;28;20077;-63
2021/10/31 06:31:52;;;;;;;51.17;22.83;;;;;;;5.58;95.51;97327.44;4965926;28;20051;-64
2021/10/31 06:34:19;;;;;;;33.30;16.95;;;;;;;7.87;94.45;97645.50;4965941;28;20090;-63
2021/10/31 06:36:46;;;;;;;25.25;12.82;;;;;;;8.01;94.06;97652.34;4964482;28;20146;-65
2021/10/31 06:39:13;;;;;;;22.98;12.82;;;;;;;7.88;94.08;97669.16;4965291;28;20062;-64
2021/10/31 06:41:40;;;;;;;30.50;14.02;;;;;;;7.88;92.11;97597.47;4965547;28;20054;-64
2021/10/31 06:44:08;;;;;;;29.05;16.67;;;;;;;8.09;91.59;97609.28;4964391;28;20055;-63
2021/10/31 06:46:35;;;;;;;60.65;27.63;;;;;;;8.21;92.87;97639.66;4964486;28;20537;-65
2021/10/31 06:49:03;;;;;;;56.65;27.48;;;;;;;8.34;94.10;97627.53;4965935;28;20054;-63
2021/10/31 06:51:30;;;;;;;61.00;29.75;;;;;;;8.49;94.58;97621.34;4964300;28;20054;-64
2021/10/31 06:53:57;;;;;;;44.10;23.10;;;;;;;8.74;94.09;97636.81;4965620;28;20063;-64
2021/10/31 06:56:27;;;;;;;21.52;11.25;;;;;;;8.58;94.13;97605.50;4963984;28;20058;-63
2021/10/31 06:58:54;;;;;;;31.88;14.55;;;;;;;8.96;94.95;97628.06;4965909;28;20051;-64
2021/10/31 07:01:21;;;;;;;21.63;10.35;;;;;;;9.23;93.75;97617.09;4963734;28;20057;-65
2021/10/31 07:03:48;;;;;;;23.02;11.88;;;;;;;9.47;91.90;97616.25;4965809;28;20061;-65
2021/10/31 07:06:16;;;;;;;22.48;10.90;;;;;;;9.64;90.93;97613.19;4965208;28;20118;-63
2021/10/31 07:08:44;;;;;;;17.63;9.90;;;;;;;9.35;89.21;97533.34;4965376;28;20055;-63
2021/10/31 07:11:11;;;;;;;24.00;11.32;;;;;;;10.17;88.77;97607.28;4964641;28;20077;-63
2021/10/31 07:13:39;;;;;;;32.45;13.38;;;;;;;10.55;88.18;97606.69;4964957;28;20057;-63
2021/10/31 07:16:06;;;;;;;25.45;11.52;;;;;;;10.34;85.34;97612.47;4964543;28;20058;-62
2021/10/31 07:18:33;;;;;;;21.45;10.57;;;;;;;10.18;86.61;97611.63;4965159;28;20066;-63
2021/10/31 07:21:00;;;;;;;18.48;9.98;;;;;;;10.45;84.25;97563.72;4965160;28;20050;-63
2021/10/31 07:23:27;;;;;;;19.20;11.75;;;;;;;11.05;82.85;97608.75;4965395;28;20141;-63
2021/10/31 07:25:54;;;;;;;24.30;12.65;;;;;;;10.97;82.72;97601.44;4963909;28;20536;-63
2021/10/31 07:28:22;;;;;;;24.77;13.32;;;;;;;11.31;81.93;97603.41;4965434;28;20055;-64
2021/10/31 07:30:51;;;;;;;22.45;14.20;;;;;;;11.28;81.35;97602.19;4965015;28;20085;-63
2021/10/31 07:33:18;;;;;;;29.95;12.63;;;;;;;11.32;80.19;97605.03;4965157;28;20054;-62
2021/10/31 07:35:45;;;;;;;22.10;10.93;;;;;;;11.64;79.77;97601.03;4965097;28;20066;-62
2021/10/31 07:38:12;;;;;;;17.17;9.35;;;;;;;11.75;78.70;97615.94;4964727;28;20102;-62
2021/10/31 07:40:39;;;;;;;15.55;8.63;;;;;;;11.33;77.73;97493.75;4965054;28;20062;-61
2021/10/31 07:43:06;;;;;;;23.80;8.35;;;;;;;12.22;76.04;97602.63;4965620;28;20153;-62
2021/10/31 07:45:39;;;;;;;18.30;9.05;;;;;;;12.33;75.42;97603.63;4964873;28;20536;-62
2021/10/31 07:48:06;;;;;;;13.40;8.15;;;;;;;12.39;75.25;97602.19;4964687;28;20138;-63
2021/10/31 07:50:36;;;;;;;18.23;8.57;;;;;;;12.62;74.22;97604.97;4964685;28;20049;-63
2021/10/31 07:53:08;;;;;;;15.50;8.57;;;;;;;12.80;73.66;97595.78;4964548;28;20142;-62
2021/10/31 07:55:37;;;;;;;17.02;9.45;;;;;;;13.08;71.68;97601.84;4964780;28;20058;-63
2021/10/31 07:58:05;;;;;;;19.23;9.38;;;;;;;13.20;70.93;97590.50;4964373;28;20513;-62
2021/10/31 08:00:33;;;;;;;17.77;9.63;;;;;;;13.39;71.19;97584.00;4964181;28;20062;-63
2021/10/31 08:03:01;;;;;;;18.02;10.40;;;;;;;13.59;69.71;97589.09;4965207;28;20147;-62
2021/10/31 08:05:28;;;;;;;20.17;10.23;;;;;;;13.75;68.65;97582.53;4964385;28;20134;-63
2021/10/31 08:07:57;;;;;;;23.70;12.77;;;;;;;13.99;68.42;97577.28;4964717;28;20061;-63
2021/10/31 08:10:25;;;;;;;31.40;15.05;;;;;;;14.30;67.45;97573.28;4943721;29;20578;-62
2021/10/31 08:12:51;;;;;;;29.90;12.88;;;;;;;14.34;66.90;97568.56;4944171;28;20059;-62
2021/10/31 08:15:18;;;;;;;31.80;14.73;;;;;;;14.45;66.37;97553.53;4943670;28;20066;-61
2021/10/31 08:17:45;;;;;;;30.77;15.75;;;;;;;14.85;65.80;97555.50;4945120;28;20059;-63
2021/10/31 08:20:12;;;;;;;32.10;15.85;;;;;;;14.79;63.09;97518.00;4945505;28;20438;-62
2021/10/31 08:22:39;;;;;;;28.65;14.80;;;;;;;15.10;63.38;97556.50;4960109;28;20077;-63
2021/10/31 08:25:06;;;;;;;34.30;18.10;;;;;;;15.25;63.00;97568.59;4945520;28;20055;-62
2021/10/31 08:27:34;;;;;;;53.33;25.30;;;;;;;15.12;61.87;97560.53;4959618;28;20051;-62
2021/10/31 08:30:01;;;;;;;38.55;19.00;;;;;;;14.53;61.81;97487.50;4945408;28;20057;-62
2021/10/31 08:32:28;;;;;;;42.05;19.60;;;;;;;14.86;62.00;97529.22;4959903;28;20055;-62
2021/10/31 08:34:55;;;;;;;25.80;14.48;;;;;;;15.19;60.74;97554.16;4945679;28;20061;-63
2021/10/31 08:37:22;;;;;;;27.63;13.43;;;;;;;15.22;59.55;97559.00;4959616;28;20081;-63
2021/10/31 08:39:49;;;;;;;20.85;13.10;;;;;;;15.21;59.15;97560.19;4944999;28;20063;-61
2021/10/31 08:42:16;;;;;;;23.52;13.00;;;;;;;15.34;58.71;97544.72;4945855;28;20081;-62
2021/10/31 08:44:44;;;;;;;19.85;12.15;;;;;;;15.46;58.14;97563.19;4963458;28;20051;-63
2021/10/31 08:47:11;;;;;;;22.60;11.52;;;;;;;15.53;58.01;97561.22;4948911;28;20134;-64
2021/10/31 08:49:37;;;;;;;17.02;9.88;;;;;;;15.81;55.90;97557.78;4963326;28;20507;-62
2021/10/31 08:52:07;;;;;;;14.20;8.70;;;;;;;15.90;53.00;97561.03;4963483;28;20366;-62
2021/10/31 08:54:36;;;;;;;21.00;10.18;;;;;;;16.18;51.57;97566.72;4948824;29;20055;-62
2021/10/31 08:57:04;;;;;;;23.90;11.82;;;;;;;16.34;51.13;97542.78;4948272;28;20059;-65
2021/10/31 08:59:32;;;;;;;14.73;8.10;;;;;;;16.15;50.22;97512.41;4948580;28;20522;-63
2021/10/31 09:01:59;;;;;;;12.02;7.80;;;;;;;15.65;50.58;97477.09;4962899;28;20051;-63
2021/10/31 09:04:26;;;;;;;10.43;5.85;;;;;;;15.43;50.76;97552.78;4948354;28;20054;-62
2021/10/31 09:06:54;;;;;;;11.60;5.40;;;;;;;15.47;49.59;97506.13;4948014;29;20055;-62
2021/10/31 09:09:24;;;;;;;12.50;6.78;;;;;;;16.07;49.03;97527.56;4959609;28;20047;-63
2021/10/31 09:11:51;;;;;;;8.50;5.13;;;;;;;15.62;47.55;97500.22;4967044;28;20082;-63
2021/10/31 09:14:18;;;;;;;8.38;4.13;;;;;;;15.51;48.17;97544.06;4967450;28;20065;-62
2021/10/31 09:16:45;;;;;;;9.77;5.80;;;;;;;16.05;48.26;97534.72;4966949;28;20058;-63
2021/10/31 09:19:12;;;;;;;8.82;4.85;;;;;;;16.33;47.51;97529.22;4967005;28;20061;-63
2021/10/31 09:21:40;;;;;;;13.70;7.72;;;;;;;16.87;46.83;97536.50;4965463;28;20047;-63
2021/10/31 09:24:07;;;;;;;6.65;4.65;;;;;;;16.89;45.38;97522.91;4967703;28;20429;-63
2021/10/31 09:26:35;;;;;;;5.05;4.30;;;;;;;16.63;46.68;97522.09;4967232;28;20059;-62
2021/10/31 09:29:03;;;;;;;9.02;4.88;;;;;;;16.13;46.31;97447.72;4966136;28;20580;-62
2021/10/31 09:31:30;;;;;;;9.00;4.20;;;;;;;16.48;46.41;97512.13;4966778;28;20536;-63
2021/10/31 09:33:58;;;;;;;8.52;4.95;;;;;;;16.31;46.23;97476.47;4967078;28;20051;-62
2021/10/31 09:36:25;;;;;;;5.68;4.55;;;;;;;15.95;47.12;97477.59;4966810;28;20057;-62
2021/10/31 09:38:56;;;;;;;5.88;4.55;;;;;;;16.54;47.79;97510.53;4966414;28;20073;-63
2021/10/31 09:41:24;;;;;;;8.27;4.97;;;;;;;16.82;46.64;97500.56;4966448;28;20588;-63
2021/10/31 09:43:59;;;;;;;8.63;4.25;;;;;;;16.97;46.03;97486.16;4965024;28;20548;-62
2021/10/31 09:46:26;;;;;;;7.15;4.53;;;;;;;17.12;45.16;97498.13;4966948;28;20083;-62
2021/10/31 09:48:53;;;;;;;5.50;4.18;;;;;;;17.30;45.06;97493.28;4966015;28;20054;-65
2021/10/31 09:51:24;;;;;;;9.57;5.10;;;;;;;17.12;45.19;97431.72;4965212;28;20057;-64
2021/10/31 09:53:52;;;;;;;9.02;6.38;;;;;;;17.70;44.82;97490.00;4965358;28;20061;-63
2021/10/31 09:56:19;;;;;;;8.65;5.22;;;;;;;17.14;45.54;97467.72;4965204;28;20074;-64
2021/10/31 09:58:46;;;;;;;14.88;7.05;;;;;;;16.27;46.10;97393.81;4966537;28;20078;-65
2021/10/31 10:01:50;;;;;;;7.80;5.18;;;;;;;16.87;46.27;97469.34;4965739;28;20054;-65
2021/10/31 10:04:23;;;;;;;;;;;;;;;16.99;45.73;97477.34;4966477;28;20047;-64
2021/10/31 10:06:54;;;;;;;6.90;4.25;;;;;;;17.23;45.68;97479.31;4966578;28;19926;-65
2021/10/31 10:09:21;;;;;;;20.38;9.02;;;;;;;16.86;45.63;97473.34;4965126;28;20061;-65
2021/10/31 10:11:48;;;;;;;7.82;5.18;;;;;;;16.75;45.92;97473.38;4966039;28;20064;-65
2021/10/31 10:14:23;;;;;;;5.70;4.65;;;;;;;16.17;46.66;97444.94;4966021;28;20502;-68
2021/10/31 10:17:01;;;;;;;6.57;4.50;;;;;;;16.28;46.42;97465.31;4964564;28;20066;-65
2021/10/31 10:19:33;;;;;;;9.70;5.45;;;;;;;16.38;47.53;97458.91;4965789;28;20054;-64
2021/10/31 10:22:07;;;;;;;5.28;4.15;;;;;;;15.21;49.02;97462.50;4965965;28;20462;-65
2021/10/31 10:24:38;;;;;;;12.88;5.15;;;;;;;14.36;51.59;97398.97;4966202;28;20063;-64
2021/10/31 10:27:08;;;;;;;12.23;6.07;;;;;;;15.30;51.23;97464.94;4966360;28;20051;-65
2021/10/31 10:29:38;;;;;;;9.48;5.57;;;;;;;15.30;50.78;97454.56;4966203;28;20566;-65
2021/10/31 10:32:15;;;;;;;7.75;5.78;;;;;;;15.36;50.96;97433.47;4966000;28;20174;-65
2021/10/31 10:34:48;;;;;;;11.15;5.70;;;;;;;15.31;50.49;97439.44;4966370;28;20055;-65
2021/10/31 10:37:28;;;;;;;17.38;7.63;;;;;;;15.35;52.13;97439.44;4964248;28;20063;-64
2021/10/31 10:40:05;;;;;;;16.83;7.22;;;;;;;15.40;52.03;97437.09;4965886;28;20064;-64
2021/10/31 10:42:38;;;;;;;12.48;7.25;;;;;;;15.34;51.25;97435.84;4964672;28;20074;-65
2021/10/31 10:45:11;;;;;;;8.20;5.83;;;;;;;15.17;52.04;97434.56;4964678;28;20082;-65
2021/10/31 10:47:48;;;;;;;8.68;6.15;;;;;;;15.32;52.22;97429.84;4964879;28;20364;-63
2021/10/31 10:50:23;;;;;;;11.85;5.78;;;;;;;15.35;52.14;97423.47;4965638;28;20443;-65
2021/10/31 10:52:51;;;;;;;8.48;6.20;;;;;;;15.30;52.26;97426.66;4964035;28;20051;-65
2021/10/31 10:55:22;;;;;;;10.05;5.85;;;;;;;15.28;52.42;97429.06;4965519;28;20059;-64
2021/10/31 10:57:59;;;;;;;10.20;5.57;;;;;;;15.31;52.41;97431.06;4965335;28;20059;-66
2021/10/31 11:00:35;;;;;;;11.35;5.93;;;;;;;14.99;52.87;97388.22;4965424;28;20047;-65
2021/10/31 11:03:04;;;;;;;9.55;5.25;;;;;;;15.17;52.94;97428.19;4965838;28;20058;-65
2021/10/31 11:05:37;;;;;;;8.55;5.45;;;;;;;15.03;53.33;97422.53;4964966;28;20065;-65
2021/10/31 11:08:15;;;;;;;11.38;5.13;;;;;;;15.38;52.58;97422.72;4965437;28;20502;-63
2021/10/31 11:10:51;;;;;;;8.20;4.63;;;;;;;15.56;52.31;97415.22;4965346;28;20061;-64
2021/10/31 11:13:18;;;;;;;8.45;5.10;;;;;;;15.56;50.77;97390.09;4964118;28;20062;-66
2021/10/31 11:15:45;;;;;;;9.30;5.63;;;;;;;15.56;51.21;97401.28;4965459;28;20069;-65
2021/10/31 11:18:12;;;;;;;7.13;4.72;;;;;;;15.28;52.26;97405.91;4965479;28;20054;-63
2021/10/31 11:20:42;;;;;;;7.85;4.90;;;;;;;14.84;52.16;97347.50;4965409;28;20047;-65
2021/10/31 11:23:12;;;;;;;10.73;4.97;;;;;;;14.58;52.74;97317.09;4966000;28;20441;-64
2021/10/31 11:25:41;;;;;;;8.27;5.10;;;;;;;14.92;53.62;97410.53;4964605;28;20062;-64
2021/10/31 11:28:12;;;;;;;7.20;3.92;;;;;;;14.77;53.82;97406.03;4963284;28;20574;-63
2021/10/31 11:30:41;;;;;;;9.38;5.43;;;;;;;14.63;54.21;97358.53;4964682;28;21053;-65
2021/10/31 11:33:10;;;;;;;10.98;5.40;;;;;;;14.92;53.92;97402.16;4964830;28;20055;-64
2021/10/31 11:35:38;;;;;;;7.70;5.10;;;;;;;14.86;54.59;97396.13;4964790;28;20046;-66